ACA5CA CYEG-CYMM
Flight info
| Callsign | ACA5CA |
|---|---|
| Flight time | 0h 38m |
| Altitude | 32000 |
| Route | EBLAR DCT KAVDA DCT LEXON LEXON5 |
| Aircraft | A321/M-SDE3FGHIRWY/LB1 |
Departure
| Time | 2026-04-29 00:47 |
|---|---|
| Airport | Edmonton International Airport (CYEG) |
Arrival
| Time | 2026-04-29 01:26 |
|---|---|
| Airport | Fort McMurray International Airport (CYMM) |
| Time | Latitude | Longitude | Altitude | Speed | Heading |
|---|---|---|---|---|---|
| 2026-04-29 00:35 | 53.30532 | -113.58351 | 2342 ft | 0 kts | 44° |
| 2026-04-29 00:41 | 53.30521 | -113.58369 | 2342 ft | 4 kts | 44° |
| 2026-04-29 00:41 | 53.30501 | -113.58401 | 2342 ft | 4 kts | 44° |
| 2026-04-29 00:41 | 53.30482 | -113.58431 | 2342 ft | 4 kts | 27° |
| 2026-04-29 00:41 | 53.30460 | -113.58435 | 2342 ft | 4 kts | 330° |
| 2026-04-29 00:42 | 53.30447 | -113.58420 | 2342 ft | 0 kts | 315° |
| 2026-04-29 00:43 | 53.30463 | -113.58446 | 2342 ft | 9 kts | 315° |
| 2026-04-29 00:44 | 53.30513 | -113.58530 | 2342 ft | 10 kts | 315° |
| 2026-04-29 00:44 | 53.30580 | -113.58648 | 2342 ft | 17 kts | 307° |
| 2026-04-29 00:44 | 53.30562 | -113.58804 | 2342 ft | 14 kts | 224° |
| 2026-04-29 00:44 | 53.30536 | -113.58939 | 2342 ft | 12 kts | 300° |
| 2026-04-29 00:45 | 53.30598 | -113.59041 | 2342 ft | 17 kts | 315° |
| 2026-04-29 00:45 | 53.30710 | -113.59228 | 2342 ft | 25 kts | 315° |
| 2026-04-29 00:45 | 53.30813 | -113.59392 | 2342 ft | 12 kts | 317° |
| 2026-04-29 00:45 | 53.30860 | -113.59467 | 2342 ft | 9 kts | 315° |
| 2026-04-29 00:46 | 53.30911 | -113.59538 | 2342 ft | 13 kts | 339° |
| 2026-04-29 00:46 | 53.30997 | -113.59491 | 2342 ft | 13 kts | 35° |
| 2026-04-29 00:46 | 53.31086 | -113.59380 | 2340 ft | 23 kts | 37° |
| 2026-04-29 00:46 | 53.31418 | -113.58994 | 2342 ft | 92 kts | 34° |
| 2026-04-29 00:47 | 53.32108 | -113.58194 | 2340 ft | 146 kts | 34° |
| 2026-04-29 00:47 | 53.33048 | -113.57123 | 2528 ft | 171 kts | 37° |
| 2026-04-29 00:47 | 53.34046 | -113.56018 | 3188 ft | 175 kts | 37° |
| 2026-04-29 00:47 | 53.35086 | -113.54882 | 3786 ft | 181 kts | 37° |
| 2026-04-29 00:48 | 53.36150 | -113.53681 | 4259 ft | 190 kts | 36° |
| 2026-04-29 00:48 | 53.37269 | -113.52392 | 4668 ft | 200 kts | 36° |
| 2026-04-29 00:48 | 53.38432 | -113.51035 | 5057 ft | 209 kts | 35° |
| 2026-04-29 00:48 | 53.39661 | -113.49596 | 5354 ft | 224 kts | 35° |
| 2026-04-29 00:49 | 53.41024 | -113.48000 | 5552 ft | 256 kts | 34° |
| 2026-04-29 00:49 | 53.42583 | -113.46180 | 5720 ft | 288 kts | 34° |
| 2026-04-29 00:49 | 53.44210 | -113.44263 | 6724 ft | 281 kts | 33° |
| 2026-04-29 00:49 | 53.45789 | -113.42370 | 7641 ft | 278 kts | 33° |
| 2026-04-29 00:50 | 53.47428 | -113.40728 | 8567 ft | 279 kts | 24° |
| 2026-04-29 00:50 | 53.49230 | -113.39378 | 9898 ft | 281 kts | 20° |
| 2026-04-29 00:50 | 53.51063 | -113.38155 | 10736 ft | 299 kts | 19° |
| 2026-04-29 00:50 | 53.53073 | -113.36830 | 11130 ft | 322 kts | 19° |
| 2026-04-29 00:51 | 53.55237 | -113.35419 | 11338 ft | 345 kts | 20° |
| 2026-04-29 00:51 | 53.57574 | -113.33861 | 11480 ft | 368 kts | 20° |
| 2026-04-29 00:51 | 53.59957 | -113.32201 | 11826 ft | 381 kts | 21° |
| 2026-04-29 00:51 | 53.62412 | -113.30438 | 12484 ft | 386 kts | 21° |
| 2026-04-29 00:52 | 53.64885 | -113.28621 | 13203 ft | 389 kts | 22° |
| 2026-04-29 00:52 | 53.67372 | -113.26774 | 13915 ft | 392 kts | 22° |
| 2026-04-29 00:52 | 53.69871 | -113.24912 | 14549 ft | 394 kts | 22° |
| 2026-04-29 00:52 | 53.72390 | -113.23037 | 15168 ft | 397 kts | 22° |
| 2026-04-29 00:53 | 53.74921 | -113.21152 | 15784 ft | 399 kts | 22° |
| 2026-04-29 00:53 | 53.77471 | -113.19266 | 16403 ft | 401 kts | 21° |
| 2026-04-29 00:53 | 53.80038 | -113.17375 | 17008 ft | 404 kts | 21° |
| 2026-04-29 00:53 | 53.82622 | -113.15479 | 17618 ft | 406 kts | 21° |
| 2026-04-29 00:54 | 53.85222 | -113.13574 | 18226 ft | 409 kts | 21° |
| 2026-04-29 00:54 | 53.87838 | -113.11642 | 18770 ft | 411 kts | 22° |
| 2026-04-29 00:54 | 53.90466 | -113.09684 | 19297 ft | 414 kts | 22° |
| 2026-04-29 00:54 | 53.93104 | -113.07705 | 19816 ft | 416 kts | 22° |
| 2026-04-29 00:55 | 53.95757 | -113.05719 | 20330 ft | 418 kts | 22° |
| 2026-04-29 00:55 | 53.98422 | -113.03718 | 20826 ft | 420 kts | 22° |
| 2026-04-29 00:55 | 54.01103 | -113.01704 | 21322 ft | 422 kts | 22° |
| 2026-04-29 00:55 | 54.03802 | -112.99681 | 21806 ft | 425 kts | 22° |
| 2026-04-29 00:56 | 54.06511 | -112.97659 | 22271 ft | 427 kts | 22° |
| 2026-04-29 00:56 | 54.09240 | -112.95622 | 22751 ft | 429 kts | 22° |
| 2026-04-29 00:56 | 54.11979 | -112.93564 | 23187 ft | 432 kts | 22° |
| 2026-04-29 00:56 | 54.14732 | -112.91482 | 23632 ft | 434 kts | 22° |
| 2026-04-29 00:57 | 54.17495 | -112.89383 | 23999 ft | 436 kts | 22° |
| 2026-04-29 00:57 | 54.20279 | -112.87270 | 24351 ft | 439 kts | 22° |
| 2026-04-29 00:57 | 54.23078 | -112.85145 | 24744 ft | 441 kts | 22° |
| 2026-04-29 00:57 | 54.25822 | -112.83062 | 24967 ft | 443 kts | 22° |
| 2026-04-29 00:58 | 54.28706 | -112.80874 | 25112 ft | 452 kts | 22° |
| 2026-04-29 00:58 | 54.31563 | -112.78705 | 25340 ft | 458 kts | 22° |
| 2026-04-29 00:58 | 54.34481 | -112.76485 | 25683 ft | 460 kts | 22° |
| 2026-04-29 00:58 | 54.37401 | -112.74259 | 26152 ft | 458 kts | 22° |
| 2026-04-29 00:59 | 54.40309 | -112.72044 | 26650 ft | 456 kts | 22° |
| 2026-04-29 00:59 | 54.43205 | -112.69833 | 27156 ft | 454 kts | 22° |
| 2026-04-29 00:59 | 54.46080 | -112.67629 | 27671 ft | 452 kts | 22° |
| 2026-04-29 00:59 | 54.48941 | -112.65400 | 28148 ft | 451 kts | 23° |
| 2026-04-29 01:00 | 54.51785 | -112.63127 | 28607 ft | 450 kts | 23° |
| 2026-04-29 01:00 | 54.54612 | -112.60836 | 29063 ft | 449 kts | 24° |
| 2026-04-29 01:00 | 54.57436 | -112.58538 | 29534 ft | 448 kts | 23° |
| 2026-04-29 01:00 | 54.60248 | -112.56245 | 30046 ft | 446 kts | 23° |
| 2026-04-29 01:01 | 54.63049 | -112.53962 | 30485 ft | 444 kts | 23° |
| 2026-04-29 01:01 | 54.65838 | -112.51692 | 30887 ft | 443 kts | 23° |
| 2026-04-29 01:01 | 54.68622 | -112.49425 | 31282 ft | 442 kts | 23° |
| 2026-04-29 01:01 | 54.71401 | -112.47161 | 31673 ft | 441 kts | 23° |
| 2026-04-29 01:02 | 54.74178 | -112.44897 | 32060 ft | 440 kts | 23° |
| 2026-04-29 01:02 | 54.76946 | -112.42635 | 32431 ft | 440 kts | 23° |
| 2026-04-29 01:02 | 54.79715 | -112.40372 | 32838 ft | 439 kts | 23° |
| 2026-04-29 01:02 | 54.82476 | -112.38115 | 33134 ft | 439 kts | 23° |
| 2026-04-29 01:03 | 54.85144 | -112.35935 | 33192 ft | 439 kts | 23° |
| 2026-04-29 01:03 | 54.89309 | -112.32524 | 33181 ft | 439 kts | 23° |
| 2026-04-29 01:04 | 54.93516 | -112.29065 | 33182 ft | 438 kts | 23° |
| 2026-04-29 01:04 | 54.99024 | -112.24506 | 33185 ft | 438 kts | 23° |
| 2026-04-29 01:05 | 55.04527 | -112.19952 | 33172 ft | 438 kts | 23° |
| 2026-04-29 01:05 | 55.10033 | -112.15382 | 33171 ft | 438 kts | 23° |
| 2026-04-29 01:06 | 55.15533 | -112.10801 | 33162 ft | 438 kts | 23° |
| 2026-04-29 01:06 | 55.21032 | -112.06199 | 33161 ft | 438 kts | 23° |
| 2026-04-29 01:07 | 55.26490 | -112.01623 | 33159 ft | 438 kts | 23° |
| 2026-04-29 01:07 | 55.31981 | -111.97013 | 33151 ft | 438 kts | 23° |
| 2026-04-29 01:08 | 55.37505 | -111.92355 | 33159 ft | 438 kts | 23° |
| 2026-04-29 01:08 | 55.42992 | -111.87708 | 33151 ft | 437 kts | 23° |
| 2026-04-29 01:09 | 55.48474 | -111.83052 | 33166 ft | 437 kts | 23° |
| 2026-04-29 01:09 | 55.53952 | -111.78389 | 33164 ft | 437 kts | 24° |
| 2026-04-29 01:10 | 55.59418 | -111.73720 | 32763 ft | 436 kts | 24° |
| 2026-04-29 01:10 | 55.62131 | -111.71398 | 31659 ft | 443 kts | 24° |
| 2026-04-29 01:10 | 55.64922 | -111.69005 | 30558 ft | 446 kts | 24° |
| 2026-04-29 01:10 | 55.67724 | -111.66599 | 28900 ft | 449 kts | 24° |
| 2026-04-29 01:11 | 55.70580 | -111.64141 | 27478 ft | 448 kts | 24° |
| 2026-04-29 01:11 | 55.73309 | -111.61783 | 26523 ft | 438 kts | 24° |
| 2026-04-29 01:11 | 55.76067 | -111.59396 | 25355 ft | 433 kts | 24° |
| 2026-04-29 01:11 | 55.78718 | -111.57105 | 24296 ft | 426 kts | 24° |
| 2026-04-29 01:12 | 55.81365 | -111.54816 | 23265 ft | 422 kts | 24° |
| 2026-04-29 01:12 | 55.84007 | -111.52528 | 22492 ft | 427 kts | 24° |
| 2026-04-29 01:12 | 55.86709 | -111.50193 | 21724 ft | 434 kts | 24° |
| 2026-04-29 01:12 | 55.89426 | -111.47839 | 20967 ft | 433 kts | 24° |
| 2026-04-29 01:13 | 55.92120 | -111.45491 | 20213 ft | 430 kts | 24° |
| 2026-04-29 01:13 | 55.94798 | -111.43148 | 19470 ft | 426 kts | 24° |
| 2026-04-29 01:13 | 55.97447 | -111.40824 | 18748 ft | 423 kts | 24° |
| 2026-04-29 01:13 | 56.00081 | -111.38515 | 17971 ft | 420 kts | 24° |
| 2026-04-29 01:14 | 56.02694 | -111.36228 | 17274 ft | 415 kts | 24° |
| 2026-04-29 01:14 | 56.05273 | -111.33971 | 16605 ft | 411 kts | 24° |
| 2026-04-29 01:14 | 56.07822 | -111.31730 | 15957 ft | 406 kts | 24° |
| 2026-04-29 01:14 | 56.10340 | -111.29513 | 15319 ft | 401 kts | 24° |
| 2026-04-29 01:15 | 56.12830 | -111.27319 | 14714 ft | 397 kts | 24° |
| 2026-04-29 01:15 | 56.15300 | -111.25139 | 14120 ft | 393 kts | 24° |
| 2026-04-29 01:15 | 56.17741 | -111.22981 | 13484 ft | 389 kts | 24° |
| 2026-04-29 01:15 | 56.20161 | -111.20842 | 12925 ft | 387 kts | 24° |
| 2026-04-29 01:16 | 56.22568 | -111.18716 | 12346 ft | 384 kts | 24° |
| 2026-04-29 01:16 | 56.24952 | -111.16601 | 11774 ft | 381 kts | 24° |
| 2026-04-29 01:16 | 56.27319 | -111.14496 | 11394 ft | 379 kts | 24° |
| 2026-04-29 01:16 | 56.29684 | -111.12389 | 11303 ft | 379 kts | 24° |
| 2026-04-29 01:17 | 56.32046 | -111.10282 | 11188 ft | 379 kts | 24° |
| 2026-04-29 01:17 | 56.34406 | -111.08175 | 11002 ft | 379 kts | 24° |
| 2026-04-29 01:17 | 56.35970 | -111.06776 | 10891 ft | 379 kts | 24° |
| 2026-04-29 01:17 | 56.38328 | -111.04666 | 10718 ft | 378 kts | 24° |
| 2026-04-29 01:18 | 56.40682 | -111.02558 | 10550 ft | 377 kts | 24° |
| 2026-04-29 01:18 | 56.45363 | -110.98346 | 10212 ft | 375 kts | 24° |
| 2026-04-29 01:18 | 56.47699 | -110.96248 | 10040 ft | 374 kts | 24° |
| 2026-04-29 01:19 | 56.50032 | -110.94152 | 9377 ft | 375 kts | 25° |
| 2026-04-29 01:19 | 56.52363 | -110.92047 | 8416 ft | 367 kts | 24° |
| 2026-04-29 01:19 | 56.54487 | -110.90001 | 8207 ft | 325 kts | 32° |
| 2026-04-29 01:19 | 56.56008 | -110.87285 | 8114 ft | 293 kts | 53° |
| 2026-04-29 01:20 | 56.56828 | -110.84051 | 7765 ft | 276 kts | 71° |
| 2026-04-29 01:20 | 56.57464 | -110.80903 | 7303 ft | 256 kts | 51° |
| 2026-04-29 01:20 | 56.58792 | -110.78984 | 6894 ft | 242 kts | 16° |
| 2026-04-29 01:20 | 56.60432 | -110.78637 | 6419 ft | 237 kts | 354° |
| 2026-04-29 01:21 | 56.62040 | -110.79277 | 5794 ft | 236 kts | 336° |
| 2026-04-29 01:21 | 56.63389 | -110.80760 | 5545 ft | 224 kts | 320° |
| 2026-04-29 01:21 | 56.64419 | -110.82868 | 5347 ft | 223 kts | 304° |
| 2026-04-29 01:21 | 56.65066 | -110.85430 | 5099 ft | 224 kts | 287° |
| 2026-04-29 01:22 | 56.65296 | -110.88242 | 4694 ft | 227 kts | 272° |
| 2026-04-29 01:22 | 56.65273 | -110.91104 | 4534 ft | 227 kts | 271° |
| 2026-04-29 01:22 | 56.65235 | -110.93968 | 4338 ft | 227 kts | 271° |
| 2026-04-29 01:22 | 56.65261 | -110.96793 | 4025 ft | 221 kts | 273° |
| 2026-04-29 01:23 | 56.65286 | -110.99544 | 3600 ft | 214 kts | 272° |
| 2026-04-29 01:23 | 56.65271 | -111.02221 | 3268 ft | 211 kts | 271° |
| 2026-04-29 01:23 | 56.65278 | -111.04851 | 3009 ft | 206 kts | 271° |
| 2026-04-29 01:23 | 56.65299 | -111.07407 | 2807 ft | 197 kts | 272° |
| 2026-04-29 01:24 | 56.65297 | -111.09780 | 2474 ft | 179 kts | 272° |
| 2026-04-29 01:24 | 56.65304 | -111.11924 | 2292 ft | 163 kts | 272° |
| 2026-04-29 01:24 | 56.65303 | -111.13880 | 2062 ft | 149 kts | 271° |
| 2026-04-29 01:24 | 56.65310 | -111.15726 | 1754 ft | 144 kts | 270° |
| 2026-04-29 01:25 | 56.65316 | -111.17521 | 1568 ft | 141 kts | 269° |
| 2026-04-29 01:25 | 56.65318 | -111.19298 | 1399 ft | 140 kts | 270° |
| 2026-04-29 01:25 | 56.65322 | -111.21063 | 1238 ft | 139 kts | 269° |
| 2026-04-29 01:25 | 56.65319 | -111.22608 | 1219 ft | 89 kts | 269° |
| 2026-04-29 01:26 | 56.65318 | -111.23296 | 1218 ft | 36 kts | 270° |
| 2026-04-29 01:26 | 56.65295 | -111.23557 | 1218 ft | 16 kts | 222° |
| 2026-04-29 01:26 | 56.65196 | -111.23575 | 1218 ft | 14 kts | 165° |
| 2026-04-29 01:26 | 56.65162 | -111.23442 | 1218 ft | 12 kts | 89° |
| 2026-04-29 01:27 | 56.65163 | -111.23294 | 1218 ft | 11 kts | 89° |
| 2026-04-29 01:27 | 56.65162 | -111.23149 | 1218 ft | 11 kts | 90° |
| 2026-04-29 01:27 | 56.65162 | -111.23009 | 1218 ft | 11 kts | 90° |
| 2026-04-29 01:27 | 56.65161 | -111.22877 | 1218 ft | 10 kts | 90° |
| 2026-04-29 01:28 | 56.65152 | -111.22756 | 1218 ft | 10 kts | 124° |
| 2026-04-29 01:28 | 56.65075 | -111.22728 | 1218 ft | 14 kts | 182° |
| 2026-04-29 01:28 | 56.64986 | -111.22739 | 1218 ft | 12 kts | 184° |
| 2026-04-29 01:28 | 56.64919 | -111.22779 | 1218 ft | 10 kts | 244° |
| 2026-04-29 01:29 | 56.64916 | -111.22857 | 1218 ft | 0 kts | 274° |
| 2026-04-29 01:29 | 56.64917 | -111.22869 | 1218 ft | 3 kts | 278° |
| 2026-04-29 01:29 | 56.64917 | -111.22877 | 1218 ft | 0 kts | 270° |